Observation data for Olton on 11/11/2019      Previous  Date       Current Mesonet Observations  Soil Data  Daily Summary Page  Observations in Plain Language
KONS 110600Z 32008KT 08/04 A2991 RMK A01 T00810041  RH  077%=      5-min Rain = 0
KONS 110605Z 32007KT 08/04 A2991 RMK A01 T00810040  RH  076%=      5-min Rain = 0
KONS 110610Z 32008KT 08/04 A2991 RMK A01 T00810039  RH  076%=      5-min Rain = 0
KONS 110615Z 32008KT 08/04 A2991 RMK A01 T00820038  RH  074%=      5-min Rain = 0
KONS 110620Z 32008KT 09/04 A2991 RMK A01 T00850037  RH  073%=      5-min Rain = 0
KONS 110625Z 32008KT 09/04 A299 RMK A01 T00870037  RH  072%=      5-min Rain = 0
KONS 110630Z 33008KT 09/04 A299 RMK A01 T00870037  RH  072%=      5-min Rain = 0
KONS 110635Z 32008KT 09/04 A299 RMK A01 T00890038  RH  071%=      5-min Rain = 0
KONS 110640Z 31007KT 09/04 A299 RMK A01 T00920038  RH  070%=      5-min Rain = 0
KONS 110645Z 31008KT 09/04 A299 RMK A01 T00920038  RH  070%=      5-min Rain = 0
KONS 110650Z 31008KT 09/04 A299 RMK A01 T00930039  RH  070%=      5-min Rain = 0
KONS 110655Z 32007KT 09/04 A299 RMK A01 T00890037  RH  071%=      5-min Rain = 0
KONS 110700Z 32006KT 09/04 A299 RMK A01 T00890038  RH  071%=      5-min Rain = 0
KONS 110705Z 32007KT 09/04 A299 RMK A01 T00930038  RH  069%=      5-min Rain = 0
KONS 110710Z 32007KT 10/04 A299 RMK A01 T00950037  RH  068%=      5-min Rain = 0
KONS 110715Z 32007KT 09/04 A299 RMK A01 T00930036  RH  068%=      5-min Rain = 0
KONS 110720Z 32007KT 09/03 A299 RMK A01 T00890034  RH  069%=      5-min Rain = 0
KONS 110725Z 32007KT 09/03 A299 RMK A01 T00880034  RH  069%=      5-min Rain = 0
KONS 110730Z 32007KT 09/03 A299 RMK A01 T00880033  RH  070%=      5-min Rain = 0
KONS 110735Z 32007KT 09/03 A299 RMK A01 T00880033  RH  069%=      5-min Rain = 0
KONS 110740Z 31006KT 09/03 A299 RMK A01 T00870031  RH  069%=      5-min Rain = 0
KONS 110745Z 32006KT 08/03 A299 RMK A01 T00840030  RH  070%=      5-min Rain = 0
KONS 110750Z 32005KT 08/03 A2991 RMK A01 T00830029  RH  070%=      5-min Rain = 0
KONS 110755Z 31005KT 08/03 A2991 RMK A01 T00820029  RH  070%=      5-min Rain = 0
KONS 110800Z 32006KT 08/03 A2991 RMK A01 T00800027  RH  070%=      5-min Rain = 0
KONS 110805Z 31005KT 08/03 A2991 RMK A01 T00760027  RH  072%=      5-min Rain = 0
KONS 110810Z 30005KT 07/03 A2992 RMK A01 T00740027  RH  073%=      5-min Rain = 0
KONS 110815Z 30006KT 07/03 A2992 RMK A01 T00730028  RH  074%=      5-min Rain = 0
KONS 110820Z 32008KT 07/03 A2993 RMK A01 T00690027  RH  075%=      5-min Rain = 0
KONS 110825Z 33008KT 07/03 A2993 RMK A01 T00690028  RH  076%=      5-min Rain = 0
KONS 110830Z 34009KT 07/03 A2993 RMK A01 T00720027  RH  074%=      5-min Rain = 0
KONS 110835Z 35010KT 08/02 A2993 RMK A01 T00760020  RH  068%=      5-min Rain = 0
KONS 110840Z 35013KT 09/01 A2993 RMK A01 T00860010  RH  059%=      5-min Rain = 0
KONS 110845Z 35014KT 09/01 A2994 RMK A01 T00870008  RH  058%=      5-min Rain = 0
KONS 110850Z 35012G17KT 08/01 A2994 RMK A01 T00830008  RH  060%=      5-min Rain = 0
KONS 110855Z 34015KT 08/01 A2995 RMK A01 T00810008  RH  061%=      5-min Rain = 0
KONS 110900Z 35014KT 08/01 A2995 RMK A01 T00780010  RH  063%=      5-min Rain = 0
KONS 110905Z 35017G22KT 08/01 A2996 RMK A01 T00750012  RH  065%=      5-min Rain = 0
KONS 110910Z 35017G24KT 07/01 A2996 RMK A01 T00730012  RH  066%=      5-min Rain = 0
KONS 110915Z 35018G24KT 07/01 A2997 RMK A01 T00700011  RH  067%=      5-min Rain = 0
KONS 110920Z 35020G25KT 07/01 A2997 RMK A01 T00680010  RH  068%=      5-min Rain = 0
KONS 110925Z 36019G25KT 07/01 A2998 RMK A01 T00650010  RH  068%=      5-min Rain = 0
KONS 110930Z 36020KT 06/01 A2998 RMK A01 T00620010  RH  070%=      5-min Rain = 0
KONS 110935Z 00020G25KT 06/01 A2998 RMK A01 T00600010  RH  071%=      5-min Rain = 0
KONS 110940Z 00021G27KT 06/01 A2998 RMK A01 T00590010  RH  072%=      5-min Rain = 0
KONS 110945Z 00020G25KT 06/01 A2999 RMK A01 T00570011  RH  073%=      5-min Rain = 0
KONS 110950Z 00020G28KT 06/01 A2999 RMK A01 T00560011  RH  074%=      5-min Rain = 0
KONS 110955Z 01022G28KT 06/01 A2999 RMK A01 T00550011  RH  074%=      5-min Rain = 0
KONS 111000Z 01022G28KT 05/01 A30 RMK A01 T00540012  RH  075%=      5-min Rain = 0
KONS 111005Z 01023G31KT 05/01 A30 RMK A01 T00530013  RH  076%=      5-min Rain = 0
KONS 111010Z 01024G33KT 05/02 A30 RMK A01 T00520015  RH  078%=      5-min Rain = 0
KONS 111015Z 01023G28KT 05/01 A3001 RMK A01 T00510014  RH  078%=      5-min Rain = 0
KONS 111020Z 01026G34KT 05/02 A3001 RMK A01 T00510016  RH  079%=      5-min Rain = 0
KONS 111025Z 01025G33KT 05/02 A3001 RMK A01 T00500017  RH  080%=      5-min Rain = 0
KONS 111030Z 01028G36KT 05/02 A3002 RMK A01 T00490019  RH  082%=      5-min Rain = 0
KONS 111035Z 01024G31KT 05/02 A3003 RMK A01 T00490018  RH  082%=      5-min Rain = 0
KONS 111040Z 00023G30KT 05/02 A3003 RMK A01 T00490018  RH  081%=      5-min Rain = 0
KONS 111045Z 01027G34KT 05/02 A3004 RMK A01 T00490018  RH  081%=      5-min Rain = 0
KONS 111050Z 00022G30KT 05/02 A3005 RMK A01 T00490018  RH  081%=      5-min Rain = 0
KONS 111055Z 00025G35KT 05/02 A3005 RMK A01 T00480018  RH  082%=      5-min Rain = 0
KONS 111100Z 00026G35KT 05/02 A3006 RMK A01 T00480018  RH  082%=      5-min Rain = 0
KONS 111105Z 01027G33KT 05/02 A3006 RMK A01 T00470018  RH  082%=      5-min Rain = 0
KONS 111110Z 00029G36KT 05/02 A3007 RMK A01 T00450017  RH  083%=      5-min Rain = 0
KONS 111115Z 00031G41KT 04/01 A3007 RMK A01 T00430013  RH  082%=      5-min Rain = 0
KONS 111120Z 00030G39KT 04/01 A3008 RMK A01 T00390013  RH  084%=      5-min Rain = 0
KONS 111125Z 01029G41KT 04/01 A3009 RMK A01 T00350011  RH  085%=      5-min Rain = 0
KONS 111130Z 01030G37KT 03/01 A3009 RMK A01 T00310008  RH  086%=      5-min Rain = 0
KONS 111135Z 01029G37KT 03/01 A3009 RMK A01 T00290008  RH  087%=      5-min Rain = 0
KONS 111140Z 00030G42KT 03/00 A301 RMK A01 T00250004  RH  087%=      5-min Rain = 0
KONS 111145Z 00034G43KT 02/M00 A3011 RMK A01 T00201001  RH  087%=      5-min Rain = 0
KONS 111150Z 36031G41KT 01/M01 A3012 RMK A01 T00141007  RH  087%=      5-min Rain = 0
KONS 111155Z 00031G38KT 01/M01 A3012 RMK A01 T00111008  RH  088%=      5-min Rain = 0
KONS 111200Z 01029G37KT 01/M01 A3013 RMK A01 T00101011  RH  087%=      5-min Rain = 0
KONS 111205Z 01028G38KT 01/M01 A3014 RMK A01 T00091010  RH  088%=      5-min Rain = 0
KONS 111210Z 00029G36KT 01/M01 A3014 RMK A01 T00081011  RH  088%=      5-min Rain = 0
KONS 111215Z 36028G35KT 00/M01 A3015 RMK A01 T00041013  RH  089%=      5-min Rain = 0
KONS 111220Z 00028G36KT 00/M02 A3015 RMK A01 T00011016  RH  089%=      5-min Rain = 0
KONS 111225Z 00029G36KT 00/02 A3016 RMK A01 T00-00-18  RH  089%=      5-min Rain = 0
KONS 111230Z 00030G38KT M01/M02 A3016 RMK A01 T10051024  RH  088%=      5-min Rain = 0
KONS 111235Z 00030G41KT M01/M03 A3017 RMK A01 T10081027  RH  088%=      5-min Rain = 0
KONS 111240Z 01030G37KT M01/M03 A3018 RMK A01 T10101028  RH  088%=      5-min Rain = 0
KONS 111245Z 01029G35KT M01/M03 A3018 RMK A01 T10101028  RH  088%=      5-min Rain = 0
KONS 111250Z 01029G37KT M01/M03 A3019 RMK A01 T10111029  RH  089%=      5-min Rain = 0
KONS 111255Z 01029G41KT M01/M03 A302 RMK A01 T10111030  RH  088%=      5-min Rain = 0
KONS 111300Z 01028G34KT M01/M03 A302 RMK A01 T10121031  RH  088%=      5-min Rain = 0
KONS 111305Z 01026G34KT M01/M03 A3021 RMK A01 T10131031  RH  089%=      5-min Rain = 0
KONS 111310Z 01027G35KT M01/M03 A3021 RMK A01 T10121031  RH  088%=      5-min Rain = 0
KONS 111315Z 01022G29KT M01/M03 A3022 RMK A01 T10121031  RH  088%=      5-min Rain = 0
KONS 111320Z 02026G34KT M01/M03 A3022 RMK A01 T10131032  RH  087%=      5-min Rain = 0
KONS 111325Z 01029G37KT M01/M03 A3022 RMK A01 T10131032  RH  088%=      5-min Rain = 0
KONS 111330Z 01029G36KT M01/M03 A3022 RMK A01 T10131031  RH  088%=      5-min Rain = 0
KONS 111335Z 00030G39KT M01/M03 A3023 RMK A01 T10141032  RH  088%=      5-min Rain = 0
KONS 111340Z 01032G40KT M02/M03 A3024 RMK A01 T10161034  RH  089%=      5-min Rain = 0
KONS 111345Z 01030G38KT M02/M04 A3024 RMK A01 T10171035  RH  089%=      5-min Rain = 0
KONS 111350Z 01031G38KT M02/M04 A3024 RMK A01 T10171035  RH  089%=      5-min Rain = 0
KONS 111355Z 01033G39KT M02/M04 A3025 RMK A01 T10191039  RH  087%=      5-min Rain = 0
KONS 111400Z 01031G39KT M02/M04 A3026 RMK A01 T10231044  RH  087%=      5-min Rain = 0
KONS 111405Z 01034G45KT M03/M05 A3026 RMK A01 T10251047  RH  086%=      5-min Rain = 0
KONS 111410Z 02034G41KT M03/M05 A3026 RMK A01 T10261048  RH  086%=      5-min Rain = 0
KONS 111415Z 02028G35KT M03/M05 A3027 RMK A01 T10281048  RH  087%=      5-min Rain = 0
KONS 111420Z 01028G33KT M03/M05 A3027 RMK A01 T10281048  RH  087%=      5-min Rain = 0
KONS 111425Z 01027G35KT M03/M05 A3028 RMK A01 T10271047  RH  087%=      5-min Rain = 0
KONS 111430Z 00031G37KT M03/M05 A3029 RMK A01 T10301051  RH  086%=      5-min Rain = 0
KONS 111435Z 01033G39KT M03/M05 A303 RMK A01 T10301053  RH  085%=      5-min Rain = 0
KONS 111440Z 01030G38KT M03/M05 A303 RMK A01 T10301053  RH  085%=      5-min Rain = 0
KONS 111445Z 01029G37KT M03/M05 A3031 RMK A01 T10311053  RH  086%=      5-min Rain = 0
KONS 111450Z 01033G42KT M03/M06 A3032 RMK A01 T10321055  RH  085%=      5-min Rain = 0
KONS 111455Z 01033G40KT M03/M06 A3032 RMK A01 T10321057  RH  084%=      5-min Rain = 0
KONS 111500Z 01034G42KT M03/M06 A3033 RMK A01 T10341060  RH  083%=      5-min Rain = 0
KONS 111505Z 01034G44KT M04/M06 A3033 RMK A01 T10371062  RH  083%=      5-min Rain = 0
KONS 111510Z 02032G39KT M04/M07 A3034 RMK A01 T10381066  RH  082%=      5-min Rain = 0
KONS 111515Z 01031G39KT M04/M07 A3035 RMK A01 T10391065  RH  083%=      5-min Rain = 0
KONS 111520Z 01031G39KT M04/M06 A3035 RMK A01 T10381063  RH  084%=      5-min Rain = 0
KONS 111525Z 01033G43KT M04/M06 A3035 RMK A01 T10381063  RH  084%=      5-min Rain = 0
KONS 111530Z 01034G43KT M04/M07 A3035 RMK A01 T10411071  RH  080%=      5-min Rain = 0
KONS 111535Z 01032G44KT M04/M07 A3036 RMK A01 T10421074  RH  080%=      5-min Rain = 0
KONS 111540Z 01034G42KT M04/M08 A3036 RMK A01 T10441075  RH  080%=      5-min Rain = 0
KONS 111545Z 02030G36KT M04/M08 A3036 RMK A01 T10441075  RH  080%=      5-min Rain = 0
KONS 111550Z 01028G38KT M04/M07 A3037 RMK A01 T10431073  RH  080%=      5-min Rain = 0
KONS 111555Z 01032G40KT M04/M07 A3037 RMK A01 T10431073  RH  081%=      5-min Rain = 0
KONS 111600Z 01029G38KT M04/M07 A3038 RMK A01 T10411072  RH  080%=      5-min Rain = 0
KONS 111605Z 01028G34KT M04/M07 A3038 RMK A01 T10411072  RH  080%=      5-min Rain = 0
KONS 111610Z 01029G36KT M04/M07 A3038 RMK A01 T10391071  RH  080%=      5-min Rain = 0
KONS 111615Z 01028G34KT M04/M07 A3039 RMK A01 T10391071  RH  079%=      5-min Rain = 0
KONS 111620Z 02032G39KT M04/M07 A3039 RMK A01 T10391072  RH  079%=      5-min Rain = 0
KONS 111625Z 02031G37KT M04/M07 A3039 RMK A01 T10401073  RH  079%=      5-min Rain = 0
KONS 111630Z 01031G41KT M04/M07 A304 RMK A01 T10401073  RH  079%=      5-min Rain = 0
KONS 111635Z 01031G39KT M04/M07 A304 RMK A01 T10411073  RH  079%=      5-min Rain = 0
KONS 111640Z 01029G36KT M04/M07 A304 RMK A01 T10401074  RH  078%=      5-min Rain = 0
KONS 111645Z 01031G39KT M04/M08 A3041 RMK A01 T10411075  RH  078%=      5-min Rain = 0
KONS 111650Z 01030G41KT M04/M08 A3041 RMK A01 T10411077  RH  077%=      5-min Rain = 0
KONS 111655Z 02028G39KT M04/M08 A3042 RMK A01 T10421079  RH  077%=      5-min Rain = 0
KONS 111700Z 01024G31KT M04/M08 A3042 RMK A01 T10411078  RH  077%=      5-min Rain = 0
KONS 111705Z 01027KT M04/M08 A3043 RMK A01 T10421077  RH  078%=      5-min Rain = 0
KONS 111710Z 01025G34KT M04/M08 A3043 RMK A01 T10431076  RH  078%=      5-min Rain = 0
KONS 111715Z 00029KT M05/M08 A3043 RMK A01 T10461079  RH  079%=      5-min Rain = 0
KONS 111720Z 01025G34KT M05/M08 A3044 RMK A01 T10451079  RH  078%=      5-min Rain = 0
KONS 111725Z 01029G36KT M05/M08 A3044 RMK A01 T10471083  RH  077%=      5-min Rain = 0
KONS 111730Z 01029G35KT M05/M08 A3044 RMK A01 T10471083  RH  077%=      5-min Rain = 0
KONS 111735Z 01030G36KT M05/M09 A3045 RMK A01 T10471085  RH  076%=      5-min Rain = 0
KONS 111740Z 01027G33KT M05/M08 A3045 RMK A01 T10451084  RH  075%=      5-min Rain = 0
KONS 111745Z 01023G31KT M05/M08 A3045 RMK A01 T10451084  RH  075%=      5-min Rain = 0
KONS 111750Z 01028G34KT M05/M09 A3045 RMK A01 T10501089  RH  075%=      5-min Rain = 0
KONS 111755Z 01027G36KT M05/M09 A3045 RMK A01 T10491089  RH  075%=      5-min Rain = 0
KONS 111800Z 01028G35KT M05/M09 A3045 RMK A01 T10471090  RH  073%=      5-min Rain = 0
KONS 111805Z 01026G33KT M05/M09 A3045 RMK A01 T10451091  RH  071%=      5-min Rain = 0
KONS 111810Z 01028G35KT M05/M09 A3045 RMK A01 T10461094  RH  070%=      5-min Rain = 0
KONS 111815Z 02028G38KT M05/M09 A3045 RMK A01 T10451094  RH  069%=      5-min Rain = 0
KONS 111820Z 01026G33KT M04/M09 A3045 RMK A01 T10431094  RH  069%=      5-min Rain = 0
KONS 111825Z 01026G33KT M04/M09 A3044 RMK A01 T10411093  RH  068%=      5-min Rain = 0
KONS 111830Z 01027G33KT M04/M09 A3044 RMK A01 T10431093  RH  069%=      5-min Rain = 0
KONS 111835Z 00028G33KT M04/M09 A3045 RMK A01 T10431092  RH  069%=      5-min Rain = 0
KONS 111840Z 00025G34KT M04/M09 A3045 RMK A01 T10411092  RH  068%=      5-min Rain = 0
KONS 111845Z 01027G35KT M04/M09 A3045 RMK A01 T10421094  RH  068%=      5-min Rain = 0
KONS 111850Z 00027G33KT M04/M10 A3044 RMK A01 T10431095  RH  068%=      5-min Rain = 0
KONS 111855Z 01026G32KT M04/M10 A3044 RMK A01 T10441096  RH  068%=      5-min Rain = 0
KONS 111900Z 00024G29KT M04/M09 A3044 RMK A01 T10421094  RH  068%=      5-min Rain = 0
KONS 111905Z 00023G30KT M04/M09 A3045 RMK A01 T10401094  RH  067%=      5-min Rain = 0
KONS 111910Z 00026G33KT M04/M10 A3044 RMK A01 T10411095  RH  067%=      5-min Rain = 0
KONS 111915Z 01025G30KT M04/M09 A3044 RMK A01 T10401094  RH  067%=      5-min Rain = 0
KONS 111920Z 01028G34KT M04/M10 A3044 RMK A01 T10411097  RH  066%=      5-min Rain = 0
KONS 111925Z 01027G35KT M04/M10 A3044 RMK A01 T10411098  RH  066%=      5-min Rain = 0
KONS 111930Z 01030G36KT M04/M10 A3044 RMK A01 T10401099  RH  064%=      5-min Rain = 0
KONS 111935Z 01028G34KT M04/M10 A3044 RMK A01 T10401099  RH  064%=      5-min Rain = 0
KONS 111940Z 01026G32KT M04/M10 A3044 RMK A01 T10391098  RH  064%=      5-min Rain = 0
KONS 111945Z 01028G36KT M04/M10 A3043 RMK A01 T10361101  RH  062%=      5-min Rain = 0
KONS 111950Z 02029G36KT M04/M10 A3043 RMK A01 T10351102  RH  061%=      5-min Rain = 0
KONS 111955Z 01028G36KT M03/M10 A3043 RMK A01 T10331102  RH  060%=      5-min Rain = 0
KONS 112000Z 01028G36KT M03/M10 A3043 RMK A01 T10321101  RH  060%=      5-min Rain = 0
KONS 112005Z 00029G36KT M03/M10 A3043 RMK A01 T10321101  RH  060%=      5-min Rain = 0
KONS 112010Z 00027G34KT M03/M10 A3043 RMK A01 T10291100  RH  059%=      5-min Rain = 0
KONS 112015Z 01027G34KT M03/M10 A3044 RMK A01 T10281100  RH  058%=      5-min Rain = 0
KONS 112020Z 01026G33KT M03/M10 A3044 RMK A01 T10301101  RH  059%=      5-min Rain = 0
KONS 112025Z 01025G33KT M03/M10 A3045 RMK A01 T10321100  RH  060%=      5-min Rain = 0
KONS 112030Z 01024G31KT M03/M10 A3045 RMK A01 T10291098  RH  060%=      5-min Rain = 0
KONS 112035Z 01026G32KT M03/M10 A3045 RMK A01 T10291098  RH  060%=      5-min Rain = 0
KONS 112040Z 02024G30KT M03/M10 A3045 RMK A01 T10281097  RH  060%=      5-min Rain = 0
KONS 112045Z 01023G30KT M03/M10 A3045 RMK A01 T10281097  RH  060%=      5-min Rain = 0
KONS 112050Z 01024G30KT M03/M10 A3045 RMK A01 T10261096  RH  059%=      5-min Rain = 0
KONS 112055Z 02024G31KT M03/M10 A3045 RMK A01 T10281098  RH  059%=      5-min Rain = 0
KONS 112100Z 02023G31KT M03/M10 A3046 RMK A01 T10261098  RH  059%=      5-min Rain = 0
KONS 112105Z 02020G27KT M03/M10 A3047 RMK A01 T10251097  RH  059%=      5-min Rain = 0
KONS 112110Z 01022G27KT M02/M10 A3047 RMK A01 T10201095  RH  057%=      5-min Rain = 0
KONS 112115Z 01023G30KT M02/M10 A3047 RMK A01 T10211097  RH  056%=      5-min Rain = 0
KONS 112120Z 02026G32KT M02/M10 A3046 RMK A01 T10211099  RH  056%=      5-min Rain = 0
KONS 112125Z 02022G29KT M02/M10 A3046 RMK A01 T10171097  RH  055%=      5-min Rain = 0
KONS 112130Z 01022G29KT M02/M10 A3046 RMK A01 T10201100  RH  055%=      5-min Rain = 0
KONS 112135Z 02021G27KT M02/M10 A3046 RMK A01 T10181099  RH  055%=      5-min Rain = 0
KONS 112140Z 02022G28KT M02/M10 A3047 RMK A01 T10191101  RH  054%=      5-min Rain = 0
KONS 112145Z 02023G28KT M02/M10 A3046 RMK A01 T10171101  RH  054%=      5-min Rain = 0
KONS 112150Z 02022G28KT M02/M10 A3046 RMK A01 T10151100  RH  053%=      5-min Rain = 0
KONS 112155Z 01020G26KT M01/M10 A3047 RMK A01 T10141100  RH  053%=      5-min Rain = 0
KONS 112200Z 01021G26KT M01/M10 A3047 RMK A01 T10131100  RH  052%=      5-min Rain = 0
KONS 112205Z 01021G28KT M01/M10 A3048 RMK A01 T10131099  RH  053%=      5-min Rain = 0
KONS 112210Z 02019G25KT M01/M10 A3049 RMK A01 T10141100  RH  053%=      5-min Rain = 0
KONS 112215Z 01019G24KT M01/M10 A305 RMK A01 T10141100  RH  053%=      5-min Rain = 0
KONS 112220Z 01019G24KT M01/M10 A305 RMK A01 T10121099  RH  052%=      5-min Rain = 0
KONS 112225Z 01020KT M01/M10 A305 RMK A01 T10141101  RH  052%=      5-min Rain = 0
KONS 112230Z 01018G23KT M01/M10 A3049 RMK A01 T10121100  RH  052%=      5-min Rain = 0
KONS 112235Z 02017G23KT M01/M10 A305 RMK A01 T10141101  RH  052%=      5-min Rain = 0
KONS 112240Z 01020G25KT M01/M10 A305 RMK A01 T10141101  RH  052%=      5-min Rain = 0
KONS 112245Z 01019KT M02/M10 A305 RMK A01 T10151101  RH  053%=      5-min Rain = 0
KONS 112250Z 01018G25KT M02/M10 A305 RMK A01 T10151100  RH  053%=      5-min Rain = 0
KONS 112255Z 01017KT M02/M10 A305 RMK A01 T10161101  RH  053%=      5-min Rain = 0
KONS 112300Z 01018G25KT M02/M10 A3051 RMK A01 T10171101  RH  053%=      5-min Rain = 0
KONS 112305Z 01019G24KT M02/M10 A3051 RMK A01 T10171101  RH  053%=      5-min Rain = 0
KONS 112310Z 01020G25KT M02/M10 A3051 RMK A01 T10181102  RH  053%=      5-min Rain = 0
KONS 112315Z 01020G25KT M02/M10 A3051 RMK A01 T10201102  RH  054%=      5-min Rain = 0
KONS 112320Z 01018G25KT M02/M10 A3051 RMK A01 T10221102  RH  055%=      5-min Rain = 0
KONS 112325Z 02019KT M02/M10 A3051 RMK A01 T10231102  RH  055%=      5-min Rain = 0
KONS 112330Z 02018G24KT M02/M10 A305 RMK A01 T10231103  RH  055%=      5-min Rain = 0
KONS 112335Z 02019G25KT M02/M10 A3051 RMK A01 T10241104  RH  055%=      5-min Rain = 0
KONS 112340Z 01017G23KT M03/M10 A3052 RMK A01 T10251103  RH  055%=      5-min Rain = 0
KONS 112345Z 01020KT M03/M11 A3052 RMK A01 T10251106  RH  055%=      5-min Rain = 0
KONS 112350Z 01020G25KT M03/M11 A3052 RMK A01 T10261108  RH  054%=      5-min Rain = 0
KONS 112355Z 01019KT M03/M11 A3052 RMK A01 T10271108  RH  054%=      5-min Rain = 0
KONS 120000Z 01017G22KT M03/M11 A3052 RMK A01 T10281108  RH  055%=      5-min Rain = 0
KONS 120005Z 01016KT M03/M11 A3052 RMK A01 T10291108  RH  055%=      5-min Rain = 0
KONS 120010Z 01017KT M03/M11 A3053 RMK A01 T10291109  RH  055%=      5-min Rain = 0
KONS 120015Z 01019G26KT M03/M11 A3052 RMK A01 T10311114  RH  053%=      5-min Rain = 0
KONS 120020Z 01020G26KT M03/M12 A3053 RMK A01 T10321120  RH  052%=      5-min Rain = 0
KONS 120025Z 01017G22KT M03/M12 A3053 RMK A01 T10341122  RH  051%=      5-min Rain = 0
KONS 120030Z 01018G23KT M04/M13 A3054 RMK A01 T10351127  RH  050%=      5-min Rain = 0
KONS 120035Z 01017KT M04/M13 A3054 RMK A01 T10371129  RH  049%=      5-min Rain = 0
KONS 120040Z 01015KT M04/M13 A3054 RMK A01 T10381130  RH  049%=      5-min Rain = 0
KONS 120045Z 02015KT M04/M13 A3055 RMK A01 T10391132  RH  049%=      5-min Rain = 0
KONS 120050Z 02013G18KT M04/M13 A3055 RMK A01 T10401132  RH  050%=      5-min Rain = 0
KONS 120055Z 02013KT M04/M13 A3055 RMK A01 T10411132  RH  050%=      5-min Rain = 0
KONS 120100Z 02014KT M04/M13 A3055 RMK A01 T10411132  RH  050%=      5-min Rain = 0
KONS 120105Z 02013KT M04/M13 A3055 RMK A01 T10421132  RH  050%=      5-min Rain = 0
KONS 120110Z 02012KT M04/M13 A3055 RMK A01 T10431131  RH  051%=      5-min Rain = 0
KONS 120115Z 02013KT M04/M13 A3055 RMK A01 T10431131  RH  051%=      5-min Rain = 0
KONS 120120Z 01012KT M04/M13 A3056 RMK A01 T10441130  RH  052%=      5-min Rain = 0
KONS 120125Z 02012KT M04/M13 A3056 RMK A01 T10441130  RH  052%=      5-min Rain = 0
KONS 120130Z 01011KT M05/M13 A3056 RMK A01 T10451129  RH  053%=      5-min Rain = 0
KONS 120135Z 01010KT M05/M13 A3056 RMK A01 T10471128  RH  054%=      5-min Rain = 0
KONS 120140Z 01011KT M05/M13 A3056 RMK A01 T10471127  RH  054%=      5-min Rain = 0
KONS 120145Z 01010KT M05/M13 A3056 RMK A01 T10481126  RH  055%=      5-min Rain = 0
KONS 120150Z 01010KT M05/M13 A3057 RMK A01 T10491126  RH  056%=      5-min Rain = 0
KONS 120155Z 01010KT M05/M13 A3057 RMK A01 T10491126  RH  056%=      5-min Rain = 0
KONS 120200Z 01010KT M05/M13 A3057 RMK A01 T10501125  RH  057%=      5-min Rain = 0
KONS 120205Z 01010KT M05/M13 A3057 RMK A01 T10501125  RH  056%=      5-min Rain = 0
KONS 120210Z 01011KT M05/M13 A3057 RMK A01 T10491126  RH  056%=      5-min Rain = 0
KONS 120215Z 01010KT M05/M13 A3057 RMK A01 T10501127  RH  056%=      5-min Rain = 0
KONS 120220Z 01011KT M05/M13 A3057 RMK A01 T10501127  RH  055%=      5-min Rain = 0
KONS 120225Z 01010KT M05/M13 A3057 RMK A01 T10511128  RH  056%=      5-min Rain = 0
KONS 120230Z 01012KT M05/M13 A3057 RMK A01 T10511129  RH  055%=      5-min Rain = 0
KONS 120235Z 01013KT M05/M13 A3056 RMK A01 T10511131  RH  054%=      5-min Rain = 0
KONS 120240Z 01013KT M05/M13 A3056 RMK A01 T10511132  RH  054%=      5-min Rain = 0
KONS 120245Z 01012KT M05/M13 A3056 RMK A01 T10521134  RH  053%=      5-min Rain = 0
KONS 120250Z 02013KT M05/M13 A3056 RMK A01 T10521134  RH  053%=      5-min Rain = 0
KONS 120255Z 01012KT M05/M14 A3057 RMK A01 T10521135  RH  053%=      5-min Rain = 0
KONS 120300Z 01011KT M05/M14 A3057 RMK A01 T10531135  RH  053%=      5-min Rain = 0
KONS 120305Z 01012KT M05/M14 A3057 RMK A01 T10541135  RH  053%=      5-min Rain = 0
KONS 120310Z 02012KT M05/M14 A3058 RMK A01 T10541136  RH  054%=      5-min Rain = 0
KONS 120315Z 02011KT M06/M14 A3058 RMK A01 T10551136  RH  054%=      5-min Rain = 0
KONS 120320Z 02011KT M06/M14 A3058 RMK A01 T10561136  RH  054%=      5-min Rain = 0
KONS 120325Z 02012KT M06/M14 A3058 RMK A01 T10561137  RH  054%=      5-min Rain = 0
KONS 120330Z 02012KT M06/M14 A3058 RMK A01 T10561138  RH  053%=      5-min Rain = 0
KONS 120335Z 02010KT M06/M14 A3058 RMK A01 T10571138  RH  054%=      5-min Rain = 0
KONS 120340Z 02010KT M06/M14 A3059 RMK A01 T10581138  RH  054%=      5-min Rain = 0
KONS 120345Z 02010KT M06/M14 A3059 RMK A01 T10591138  RH  054%=      5-min Rain = 0
KONS 120350Z 02010KT M06/M14 A3059 RMK A01 T10591138  RH  054%=      5-min Rain = 0
KONS 120355Z 02010KT M06/M14 A3059 RMK A01 T10601138  RH  055%=      5-min Rain = 0
KONS 120400Z 02011KT M06/M14 A3059 RMK A01 T10611138  RH  055%=      5-min Rain = 0
KONS 120405Z 02011KT M06/M14 A3059 RMK A01 T10611139  RH  055%=      5-min Rain = 0
KONS 120410Z 02011KT M06/M14 A3059 RMK A01 T10611139  RH  055%=      5-min Rain = 0
KONS 120415Z 02010KT M06/M14 A306 RMK A01 T10621139  RH  055%=      5-min Rain = 0
KONS 120420Z 02010KT M06/M14 A306 RMK A01 T10631139  RH  056%=      5-min Rain = 0
KONS 120425Z 02009KT M06/M14 A306 RMK A01 T10641139  RH  056%=      5-min Rain = 0
KONS 120430Z 02009KT M07/M14 A3061 RMK A01 T10651139  RH  057%=      5-min Rain = 0
KONS 120435Z 02009KT M07/M14 A3061 RMK A01 T10661139  RH  057%=      5-min Rain = 0
KONS 120440Z 02009KT M07/M14 A3061 RMK A01 T10671139  RH  058%=      5-min Rain = 0
KONS 120445Z 02009KT M07/M14 A3061 RMK A01 T10681139  RH  058%=      5-min Rain = 0
KONS 120450Z 01008KT M07/M14 A3061 RMK A01 T10701138  RH  059%=      5-min Rain = 0
KONS 120455Z 01009KT M07/M14 A3061 RMK A01 T10711138  RH  060%=      5-min Rain = 0
KONS 120500Z 01009KT M07/M14 A3061 RMK A01 T10721137  RH  060%=      5-min Rain = 0
KONS 120505Z 01008KT M07/M14 A3061 RMK A01 T10731137  RH  061%=      5-min Rain = 0
KONS 120510Z 01008KT M07/M14 A3061 RMK A01 T10741137  RH  062%=      5-min Rain = 0
KONS 120515Z 01008KT M08/M14 A306 RMK A01 T10751137  RH  062%=      5-min Rain = 0
KONS 120520Z 01008KT M08/M14 A306 RMK A01 T10751137  RH  062%=      5-min Rain = 0
KONS 120525Z 01008KT M08/M14 A306 RMK A01 T10771137  RH  063%=      5-min Rain = 0
KONS 120530Z 01007KT M08/M14 A306 RMK A01 T10791137  RH  064%=      5-min Rain = 0
KONS 120535Z 01007KT M08/M14 A306 RMK A01 T10791137  RH  064%=      5-min Rain = 0
KONS 120540Z 01006KT M08/M14 A306 RMK A01 T10801137  RH  064%=      5-min Rain = 0
KONS 120545Z 01006KT M08/M14 A306 RMK A01 T10821137  RH  066%=      5-min Rain = 0
KONS 120550Z 01006KT M08/M14 A306 RMK A01 T10831137  RH  066%=      5-min Rain = 0
KONS 120555Z 02007KT M08/M14 A306 RMK A01 T10841136  RH  067%=      5-min Rain = 0

Page generated in 0.0092 seconds.